Time;durP1;ratioP1;P1;durP2;ratioP2;P2;SDS_P1;SDS_P2;PMS_P1;PMS_P2;Temp;Humidity;BMP_temperature;BMP_pressure;BME280_temperature;BME280_humidity;BME280_pressure;Samples;Min_cycle;Max_cycle;Signal;HPM_P1;HPM_P2
2021/11/06 00:00:53;;;;;;;4.35;3.95;;;8.90;70.90;;;8.24;56.00;95943.00;4951767;28;20203;-77
2021/11/06 00:03:20;;;;;;;5.05;4.25;;;8.90;71.00;;;8.23;56.13;95943.97;4932900;29;20278;-78
2021/11/06 00:05:47;;;;;;;4.35;3.92;;;8.90;71.00;;;8.22;55.92;95937.09;4936870;29;20196;-78
2021/11/06 00:08:14;;;;;;;4.28;3.88;;;8.90;71.00;;;8.22;56.02;95933.69;4941486;28;20254;-79
2021/11/06 00:10:41;;;;;;;5.00;4.50;;;8.90;71.10;;;8.20;56.23;95933.00;4955725;28;20195;-78
2021/11/06 00:13:09;;;;;;;5.00;4.20;;;8.90;71.00;;;8.18;56.32;95931.38;4939862;28;20226;-78
2021/11/06 00:15:36;;;;;;;4.70;4.20;;;8.90;71.00;;;8.13;55.93;95925.78;4955882;28;20658;-81
2021/11/06 00:18:04;;;;;;;4.65;4.10;;;8.90;71.10;;;8.16;56.20;95935.09;4939215;29;20226;-81
2021/11/06 00:20:31;;;;;;;4.28;3.88;;;8.90;71.10;;;8.14;56.32;95934.41;4979771;28;20247;-80
2021/11/06 00:22:59;;;;;;;5.97;4.80;;;8.90;71.00;;;8.11;56.30;95938.16;4956827;28;20705;-81
2021/11/06 00:25:27;;;;;;;4.90;4.40;;;8.80;71.00;;;8.09;56.13;95950.56;4925155;29;20218;-80
2021/11/06 00:27:54;;;;;;;6.00;5.05;;;8.80;70.90;;;8.06;56.36;95950.06;4930388;28;20633;-80
2021/11/06 00:30:21;;;;;;;5.68;5.03;;;8.80;70.90;;;8.01;56.27;95948.69;4958949;28;20201;-80
2021/11/06 00:32:49;;;;;;;6.00;5.18;;;8.70;70.90;;;7.96;56.21;95943.09;4942603;28;20721;-81
2021/11/06 00:35:16;;;;;;;6.05;4.75;;;8.70;70.90;;;7.90;56.11;95940.25;4943182;28;20645;-81
2021/11/06 00:37:45;;;;;;;5.18;4.68;;;8.70;70.80;;;7.79;55.90;95944.75;4956384;28;20289;-79
2021/11/06 00:40:13;;;;;;;6.78;5.57;;;8.70;70.70;;;7.71;56.36;95954.28;4942478;28;20226;-81
2021/11/06 00:42:40;;;;;;;5.25;4.43;;;8.60;70.70;;;7.54;56.30;95948.88;4942489;28;20219;-81
2021/11/06 00:45:09;;;;;;;5.45;4.95;;;8.50;70.60;;;7.47;56.44;95958.28;4942715;28;20199;-81
2021/11/06 00:47:38;;;;;;;6.40;4.78;;;8.50;70.60;;;7.34;56.64;95956.03;4915112;29;20643;-80
2021/11/06 00:50:08;;;;;;;5.65;4.97;;;8.40;70.60;;;7.22;56.55;95950.19;4926360;28;20313;-80
2021/11/06 00:52:36;;;;;;;6.22;5.63;;;8.30;70.60;;;7.12;56.79;95952.81;4939575;28;20736;-81
2021/11/06 00:55:05;;;;;;;6.47;5.13;;;8.20;70.70;;;7.01;57.09;95950.41;4943383;29;20199;-80
2021/11/06 00:57:32;;;;;;;6.80;5.20;;;8.10;70.90;;;6.91;57.86;95942.63;4923672;29;20286;-80
2021/11/06 00:59:59;;;;;;;5.82;5.22;;;8.00;70.90;;;6.84;57.38;95937.16;4939497;28;20205;-81
2021/11/06 01:02:26;;;;;;;5.60;4.88;;;7.90;70.90;;;6.78;57.27;95936.91;4942632;28;20215;-81
2021/11/06 01:04:54;;;;;;;6.75;5.07;;;7.90;71.00;;;6.72;57.28;95938.28;4942550;28;20210;-81
2021/11/06 01:07:21;;;;;;;5.20;4.70;;;7.80;71.10;;;6.63;57.11;95939.97;4940848;28;20245;-81
2021/11/06 01:09:48;;;;;;;4.93;4.43;;;7.70;71.00;;;6.55;57.09;95939.84;4937057;28;20294;-81
2021/11/06 01:12:15;;;;;;;5.53;4.82;;;7.60;71.00;;;6.46;56.92;95935.47;4942401;28;20242;-81
2021/11/06 01:14:43;;;;;;;6.30;5.53;;;7.50;70.90;;;6.36;57.33;95938.94;4958184;28;20203;-81
2021/11/06 01:17:10;;;;;;;6.18;5.57;;;7.40;71.00;;;6.27;57.61;95936.34;4926690;28;20227;-79
2021/11/06 01:19:37;;;;;;;6.53;5.43;;;7.40;71.10;;;6.21;58.01;95930.75;4942215;28;20666;-80
2021/11/06 01:22:05;;;;;;;7.78;5.95;;;7.30;71.30;;;6.16;58.07;95932.91;4933496;28;20257;-80
2021/11/06 01:24:32;;;;;;;5.80;5.20;;;7.20;71.50;;;6.12;58.54;95936.78;4938651;29;20290;-80
2021/11/06 01:27:00;;;;;;;6.22;5.63;;;7.20;71.80;;;6.09;58.57;95937.88;4938866;29;20741;-81
2021/11/06 01:29:27;;;;;;;7.38;5.80;;;7.20;71.90;;;6.06;58.84;95934.72;4970034;28;20305;-81
2021/11/06 01:31:55;;;;;;;6.05;5.07;;;7.10;72.00;;;6.03;59.00;95933.22;4935957;28;20226;-81
2021/11/06 01:34:22;;;;;;;7.68;5.80;;;7.00;72.00;;;6.01;59.23;95942.94;4942071;28;20198;-80
2021/11/06 01:36:49;;;;;;;6.05;5.25;;;7.00;72.20;;;5.98;58.92;95931.94;4935855;28;20298;-79
2021/11/06 01:39:16;;;;;;;6.22;5.38;;;6.90;72.20;;;5.92;58.74;95933.34;4923615;28;20575;-79
2021/11/06 01:41:44;;;;;;;6.43;5.50;;;6.90;72.20;;;5.85;58.83;95940.88;4938450;28;20289;-80
2021/11/06 01:44:11;;;;;;;6.65;5.30;;;6.90;72.30;;;5.81;58.82;95934.28;4941117;29;20227;-80
2021/11/06 01:46:38;;;;;;;5.70;5.05;;;6.90;72.30;;;5.80;58.91;95934.41;4930533;28;20223;-79
2021/11/06 01:49:07;;;;;;;6.30;5.28;;;6.80;72.20;;;5.73;58.42;95934.16;4948072;28;20300;-81
2021/11/06 01:51:34;;;;;;;5.40;4.90;;;6.80;72.20;;;5.72;58.40;95943.72;4968230;28;20242;-80
2021/11/06 01:54:01;;;;;;;5.75;5.15;;;6.70;72.10;;;5.66;58.38;95936.47;4941728;28;20274;-81
2021/11/06 01:56:29;;;;;;;7.20;5.38;;;6.70;72.10;;;5.60;58.18;95937.84;4950136;28;20309;-80
2021/11/06 01:58:56;;;;;;;5.97;5.25;;;6.60;72.10;;;5.56;58.42;95935.63;4954901;28;20191;-79
2021/11/06 02:01:23;;;;;;;5.13;4.63;;;6.60;72.10;;;5.53;58.41;95938.50;4938121;29;20621;-81
2021/11/06 02:03:50;;;;;;;6.55;5.25;;;6.50;72.10;;;5.45;58.52;95934.78;4924517;28;20203;-81
2021/11/06 02:06:17;;;;;;;5.43;4.88;;;6.50;72.20;;;5.43;58.66;95933.28;4940512;28;20273;-80
2021/11/06 02:08:44;;;;;;;5.68;5.07;;;6.50;72.20;;;5.38;58.87;95931.09;4937531;29;20238;-81
2021/11/06 02:11:12;;;;;;;5.75;4.95;;;6.40;72.30;;;5.34;58.44;95934.09;4922214;29;20634;-80
2021/11/06 02:13:39;;;;;;;5.75;5.15;;;6.40;72.30;;;5.32;58.72;95931.59;4924297;28;20213;-79
2021/11/06 02:16:07;;;;;;;5.50;4.72;;;6.30;72.30;;;5.23;58.55;95930.63;4937953;28;20700;-80
2021/11/06 02:18:34;;;;;;;5.88;4.78;;;6.30;72.30;;;5.24;58.46;95941.88;4940927;28;20230;-80
2021/11/06 02:21:06;;;;;;;5.45;4.90;;;6.30;72.40;;;5.20;58.74;95945.69;4957307;28;20224;-80
2021/11/06 02:23:40;;;;;;;5.10;4.60;;;6.30;72.60;;;5.15;58.50;95943.50;4955250;28;20243;-80
2021/11/06 02:26:12;;;;;;;6.05;5.10;;;6.20;72.50;;;5.06;58.41;95939.91;4952941;28;20723;-80
2021/11/06 02:29:03;;;;;;;4.72;4.22;;;6.10;72.70;;;4.99;58.18;95943.97;4934568;28;20210;-80
2021/11/06 02:31:31;;;;;;;5.15;4.22;;;6.10;72.40;;;4.87;58.18;95942.44;4927521;28;20302;-79
2021/11/06 02:33:58;;;;;;;4.50;3.85;;;6.00;72.10;;;4.83;58.68;95946.25;4937722;28;20620;-81
2021/11/06 02:36:25;;;;;;;4.60;4.15;;;6.00;72.10;;;4.74;58.52;95946.06;4936317;28;20594;-81
2021/11/06 02:38:52;;;;;;;4.32;3.92;;;5.90;72.10;;;4.67;58.63;95947.53;4930605;28;20302;-80
2021/11/06 02:41:20;;;;;;;5.32;4.45;;;5.80;72.10;;;4.55;58.54;95941.59;4929328;28;20214;-81
2021/11/06 02:43:47;;;;;;;5.60;4.18;;;5.80;72.10;;;4.53;58.40;95942.69;4946027;28;20196;-81
2021/11/06 02:46:14;;;;;;;5.20;4.38;;;5.70;72.10;;;4.45;58.79;95943.31;4929638;28;20212;-80
2021/11/06 02:48:41;;;;;;;5.05;4.15;;;5.60;72.10;;;4.37;58.82;95941.38;4930367;28;20223;-79
2021/11/06 02:51:09;;;;;;;5.28;4.20;;;5.60;72.30;;;4.36;58.77;95946.69;4947064;28;20567;-80
2021/11/06 02:53:36;;;;;;;4.35;3.92;;;5.50;72.30;;;4.28;58.78;95945.53;4945331;28;20207;-80
2021/11/06 02:56:04;;;;;;;4.45;3.92;;;5.40;72.40;;;4.23;58.89;95942.50;4945495;28;20230;-80
2021/11/06 02:58:31;;;;;;;5.00;4.18;;;5.40;72.50;;;4.18;58.96;95946.44;4938523;28;20203;-81
2021/11/06 03:00:59;;;;;;;4.35;3.85;;;5.50;72.70;;;4.11;59.11;95948.72;4938818;28;20720;-80
2021/11/06 03:03:27;;;;;;;6.03;4.22;;;5.30;72.60;;;4.06;59.09;95962.06;4954370;28;20217;-80
2021/11/06 03:05:54;;;;;;;5.93;4.88;;;5.30;72.60;;;4.00;59.29;95950.44;4961474;28;20625;-80
2021/11/06 03:08:21;;;;;;;5.78;4.72;;;5.20;72.50;;;4.03;59.37;95959.72;4956229;28;20720;-81
2021/11/06 03:10:48;;;;;;;5.35;4.80;;;5.20;72.50;;;4.00;59.58;95955.63;4938416;28;20226;-80
2021/11/06 03:13:15;;;;;;;6.45;5.53;;;5.10;72.50;;;4.02;59.90;95963.28;4938222;28;20610;-78
2021/11/06 03:15:42;;;;;;;7.88;6.20;;;5.10;72.80;;;4.05;60.22;95967.38;4935463;29;20637;-77
2021/11/06 03:18:09;;;;;;;7.10;5.93;;;5.10;73.10;;;4.07;60.06;95962.91;4936994;29;20310;-80
2021/11/06 03:20:37;;;;;;;6.30;5.68;;;5.10;73.30;;;4.11;59.66;95965.13;4939370;28;20199;-80
2021/11/06 03:23:04;;;;;;;7.32;5.82;;;5.00;73.30;;;4.13;59.76;95970.19;4972586;28;20266;-80
2021/11/06 03:25:31;;;;;;;6.72;5.38;;;5.10;73.30;;;4.15;60.23;95970.88;4937075;29;20209;-81
2021/11/06 03:27:58;;;;;;;7.22;5.80;;;5.10;73.50;;;4.18;60.49;95970.63;4943107;28;20720;-79
2021/11/06 03:30:25;;;;;;;6.53;5.47;;;5.10;73.60;;;4.21;59.81;95969.56;4965185;28;20317;-79
2021/11/06 03:32:53;;;;;;;5.88;5.10;;;5.10;73.60;;;4.21;59.78;95980.78;4931208;28;20684;-79
2021/11/06 03:35:22;;;;;;;7.32;6.35;;;5.10;73.60;;;4.19;60.30;95977.47;4934026;28;20702;-79
2021/11/06 03:37:50;;;;;;;7.32;5.85;;;5.10;73.60;;;4.19;60.02;95974.03;4940168;28;20288;-79
2021/11/06 03:40:19;;;;;;;7.32;5.93;;;5.10;73.80;;;4.21;59.67;95987.72;4972352;28;20203;-80
2021/11/06 03:42:47;;;;;;;6.72;5.75;;;5.10;73.60;;;4.21;60.21;95991.16;4938143;28;20293;-80
2021/11/06 03:45:15;;;;;;;6.63;5.43;;;5.20;73.80;;;4.21;60.06;95993.75;4939194;29;20551;-80
2021/11/06 03:47:42;;;;;;;7.60;5.95;;;5.10;73.70;;;4.20;60.23;95986.06;4924188;28;20301;-80
2021/11/06 03:50:13;;;;;;;6.35;5.18;;;5.20;73.80;;;4.21;60.32;96000.72;4937203;28;20310;-80
2021/11/06 03:52:41;;;;;;;7.47;6.05;;;5.10;73.70;;;4.21;60.12;96004.16;4940637;28;20218;-80
2021/11/06 03:55:12;;;;;;;6.95;5.82;;;5.20;73.80;;;4.21;60.18;95998.13;4958511;28;20241;-80
2021/11/06 03:57:40;;;;;;;7.93;5.82;;;5.10;73.70;;;4.21;60.04;96006.75;4946313;28;20345;-81
2021/11/06 04:00:11;;;;;;;6.82;5.60;;;5.20;73.80;;;4.21;60.19;95996.38;4943181;28;20219;-80
2021/11/06 04:02:40;;;;;;;6.32;5.30;;;5.20;74.00;;;4.21;60.05;95998.97;4973629;28;20232;-80
2021/11/06 04:05:07;;;;;;;6.68;5.60;;;5.20;73.80;;;4.16;59.90;95994.13;4940491;28;20195;-80
2021/11/06 04:07:35;;;;;;;6.60;5.68;;;5.10;73.60;;;4.14;60.00;96003.00;4946371;29;20219;-80
2021/11/06 04:10:03;;;;;;;7.38;5.72;;;5.10;73.50;;;4.13;59.95;95996.97;4927709;28;20301;-80
2021/11/06 04:12:30;;;;;;;7.32;5.32;;;5.10;73.70;;;4.10;59.68;95997.22;4939284;28;20249;-80
2021/11/06 04:14:58;;;;;;;7.15;5.68;;;5.10;73.60;;;4.05;59.82;95999.34;4934063;29;20238;-80
2021/11/06 04:17:25;;;;;;;7.70;6.45;;;5.10;73.60;;;3.99;59.78;95999.84;4954113;29;20246;-80
2021/11/06 04:19:54;;;;;;;6.93;5.60;;;5.00;73.60;;;4.00;59.50;96010.13;4979769;28;20547;-80
2021/11/06 04:22:22;;;;;;;21.30;19.27;;;5.10;73.70;;;3.96;60.24;96005.31;4957111;28;20229;-80
2021/11/06 04:24:49;;;;;;;24.67;22.27;;;5.00;73.60;;;3.96;60.00;96019.09;4957225;28;20641;-80
2021/11/06 04:27:16;;;;;;;15.50;13.90;;;5.00;73.70;;;3.89;59.92;95998.97;4939693;28;20306;-80
2021/11/06 04:29:43;;;;;;;11.48;10.27;;;4.90;73.80;;;3.91;60.16;96010.06;4945514;28;20313;-80
2021/11/06 04:32:10;;;;;;;21.42;19.20;;;5.00;73.80;;;3.91;60.04;96012.66;4957349;28;20371;-80
2021/11/06 04:34:37;;;;;;;17.67;15.98;;;4.90;73.80;;;3.90;60.15;96009.22;4942149;28;20657;-81
2021/11/06 04:37:05;;;;;;;12.38;11.10;;;4.90;73.80;;;3.90;60.28;96011.81;4943105;28;20482;-80
2021/11/06 04:39:32;;;;;;;9.18;8.25;;;5.00;74.00;;;3.89;60.32;96017.13;4974773;28;20294;-79
2021/11/06 04:42:00;;;;;;;9.23;7.25;;;4.90;73.90;;;3.91;60.96;96010.06;4926818;28;20325;-80
2021/11/06 04:44:28;;;;;;;9.05;7.20;;;4.90;74.10;;;3.94;60.91;96014.97;4958159;28;20281;-81
2021/11/06 04:46:55;;;;;;;7.82;6.82;;;4.90;74.40;;;3.98;60.96;96016.41;4930467;29;20227;-80
2021/11/06 04:49:22;;;;;;;7.97;5.85;;;4.90;74.60;;;4.01;60.92;96019.53;4935027;29;20702;-80
2021/11/06 04:51:49;;;;;;;8.85;6.68;;;4.90;74.50;;;4.03;61.21;96013.41;4953385;28;20277;-80
2021/11/06 04:54:16;;;;;;;8.70;7.20;;;5.00;74.60;;;4.01;61.80;96009.16;4930067;29;20199;-80
2021/11/06 04:56:43;;;;;;;9.07;7.15;;;4.90;74.70;;;3.98;61.30;96011.22;4928720;28;20246;-80
2021/11/06 04:59:11;;;;;;;6.97;6.28;;;4.90;74.60;;;4.04;61.60;96021.09;4954334;29;20196;-80
2021/11/06 05:01:38;;;;;;;8.05;6.47;;;4.90;74.60;;;4.04;61.31;96020.25;4964059;28;20254;-77
2021/11/06 05:04:06;;;;;;;6.85;6.13;;;5.00;74.60;;;4.03;61.50;96024.63;4957240;28;20191;-78
2021/11/06 05:06:33;;;;;;;8.43;7.15;;;5.00;74.70;;;4.04;61.25;96026.28;4958302;28;20234;-77
2021/11/06 05:09:00;;;;;;;9.15;7.40;;;5.00;74.70;;;4.00;61.97;96017.91;4942058;28;20195;-77
2021/11/06 05:11:27;;;;;;;14.88;10.25;;;5.00;74.90;;;4.10;61.84;96030.97;4943216;29;20250;-77
2021/11/06 05:13:56;;;;;;;16.10;11.73;;;5.00;75.00;;;4.11;61.47;96034.41;4939121;29;20234;-80
2021/11/06 05:16:24;;;;;;;11.25;7.93;;;5.00;74.90;;;4.13;61.52;96038.50;4928559;28;20225;-80
2021/11/06 05:18:53;;;;;;;9.95;7.25;;;5.00;74.90;;;4.13;62.05;96025.53;4973599;28;20202;-81
2021/11/06 05:21:22;;;;;;;7.97;6.65;;;5.10;75.00;;;4.22;62.59;96029.16;4938318;28;20214;-81
2021/11/06 05:23:50;;;;;;;10.70;7.07;;;5.10;75.30;;;4.23;62.44;96040.38;4941829;28;20203;-80
2021/11/06 05:26:17;;;;;;;8.88;6.55;;;5.10;75.20;;;4.19;62.27;96037.19;4958210;28;20234;-77
2021/11/06 05:28:45;;;;;;;9.88;6.60;;;5.20;75.30;;;4.15;62.43;96025.41;4941265;28;20298;-78
2021/11/06 05:31:12;;;;;;;8.88;6.50;;;5.10;75.20;;;4.26;62.34;96038.34;4958155;28;20297;-77
2021/11/06 05:33:39;;;;;;;12.65;7.68;;;5.20;75.30;;;4.25;62.81;96035.88;4973213;28;20199;-79
2021/11/06 05:36:06;;;;;;;10.48;7.78;;;5.20;75.30;;;4.29;62.70;96040.69;4942083;28;20218;-80
2021/11/06 05:38:33;;;;;;;9.68;6.78;;;5.20;75.40;;;4.32;63.05;96032.66;4941304;28;20229;-80
2021/11/06 05:41:01;;;;;;;7.63;6.32;;;5.30;75.60;;;4.36;62.83;96041.03;4937993;29;20271;-80
2021/11/06 05:43:28;;;;;;;7.82;5.63;;;5.20;75.50;;;4.36;62.67;96043.63;4954434;29;20206;-80
2021/11/06 05:45:55;;;;;;;6.60;5.78;;;5.20;75.30;;;4.35;62.47;96046.34;4944303;28;20708;-80
2021/11/06 05:48:22;;;;;;;7.28;6.15;;;5.30;75.30;;;4.32;62.82;96042.22;4923018;29;20636;-80
2021/11/06 05:50:50;;;;;;;7.97;6.30;;;5.30;75.50;;;4.29;62.71;96039.88;4941305;28;20223;-80
2021/11/06 05:53:17;;;;;;;7.00;5.63;;;5.30;75.40;;;4.29;62.32;96052.84;4941575;28;20199;-81
2021/11/06 05:55:44;;;;;;;6.50;5.43;;;5.30;75.30;;;4.27;62.48;96054.75;4957590;28;20628;-80
2021/11/06 05:58:11;;;;;;;6.25;5.40;;;5.30;75.20;;;4.25;62.38;96059.25;4937786;28;20199;-80
2021/11/06 06:00:40;;;;;;;6.07;5.45;;;5.20;75.10;;;4.23;62.53;96066.34;4937967;28;20685;-80
2021/11/06 06:03:07;;;;;;;7.38;6.13;;;5.20;75.20;;;4.22;62.67;96069.88;4941621;28;20198;-80
2021/11/06 06:05:35;;;;;;;7.00;5.38;;;5.20;75.20;;;4.18;62.68;96073.69;4967386;28;20202;-80
2021/11/06 06:08:02;;;;;;;5.95;5.22;;;5.20;75.20;;;4.13;62.64;96067.06;4940331;28;20305;-80
2021/11/06 06:10:29;;;;;;;7.22;5.90;;;5.20;75.30;;;4.17;62.79;96088.41;4949957;29;20219;-80
2021/11/06 06:12:56;;;;;;;7.18;5.60;;;5.20;75.30;;;4.20;62.64;96082.16;4968573;28;20223;-80
2021/11/06 06:15:24;;;;;;;8.10;5.97;;;5.20;75.50;;;4.21;63.10;96089.00;4953197;28;20204;-80
2021/11/06 06:17:52;;;;;;;7.38;6.10;;;5.10;75.50;;;4.26;63.27;96089.44;4969905;28;20821;-78
2021/11/06 06:20:20;;;;;;;8.10;6.20;;;5.20;75.80;;;4.28;63.54;96090.16;4972255;28;20282;-77
2021/11/06 06:22:48;;;;;;;8.00;6.15;;;5.20;76.00;;;4.35;63.72;96085.31;4974186;28;20233;-78
2021/11/06 06:25:16;;;;;;;10.43;6.53;;;5.20;76.10;;;4.40;64.07;96094.38;4940820;28;20571;-80
2021/11/06 06:27:44;;;;;;;8.13;6.50;;;5.30;76.20;;;4.46;63.94;96101.66;4941025;28;20211;-80
2021/11/06 06:30:16;;;;;;;8.60;6.30;;;5.30;76.20;;;4.50;63.42;96097.03;4921067;29;20230;-80
2021/11/06 06:32:45;;;;;;;7.55;5.70;;;5.30;76.20;;;4.53;63.27;96096.81;4937701;29;20216;-80
2021/11/06 06:35:15;;;;;;;7.30;5.63;;;5.30;76.10;;;4.56;63.13;96104.34;4940825;28;20195;-81
2021/11/06 06:37:43;;;;;;;7.13;6.07;;;5.40;76.20;;;4.59;63.30;96101.50;4955845;28;20206;-80
2021/11/06 06:40:11;;;;;;;7.30;5.82;;;5.40;76.10;;;4.64;62.98;96106.31;4956892;28;20222;-80
2021/11/06 06:42:40;;;;;;;6.85;5.43;;;5.40;76.10;;;4.69;63.06;96108.53;4941151;28;20253;-79
2021/11/06 06:45:07;;;;;;;6.55;5.32;;;5.40;76.20;;;4.73;62.83;96109.94;4972464;28;20237;-80
2021/11/06 06:47:34;;;;;;;6.70;5.45;;;5.50;76.20;;;4.75;62.93;96111.47;4939054;28;20712;-79
2021/11/06 06:50:03;;;;;;;5.82;5.15;;;5.50;76.10;;;4.81;62.93;96117.94;4955882;28;20218;-80
2021/11/06 06:52:31;;;;;;;8.63;6.03;;;5.50;76.10;;;4.84;62.96;96111.66;4940505;28;20715;-79
2021/11/06 06:54:58;;;;;;;7.30;5.90;;;5.60;76.10;;;4.89;63.25;96118.13;4972613;28;20198;-80
2021/11/06 06:57:25;;;;;;;6.25;5.30;;;5.60;76.20;;;4.95;62.73;96124.59;4955192;28;20300;-80
2021/11/06 06:59:52;;;;;;;6.13;5.13;;;5.70;76.20;;;5.01;62.53;96123.28;4925642;28;20567;-79
2021/11/06 07:02:20;;;;;;;5.90;4.85;;;5.70;76.30;;;5.02;62.21;96122.31;4938659;29;20740;-79
2021/11/06 07:04:47;;;;;;;6.60;5.63;;;5.70;76.10;;;5.06;62.08;96131.50;4931531;28;20246;-81
2021/11/06 07:07:15;;;;;;;7.57;5.65;;;5.80;76.00;;;5.07;61.68;96139.19;4940594;28;20215;-80
2021/11/06 07:09:42;;;;;;;7.93;5.90;;;5.80;75.90;;;5.06;61.71;96134.09;4936850;29;20227;-80
2021/11/06 07:12:14;;;;;;;9.32;5.75;;;5.80;75.80;;;5.04;61.75;96139.44;4953016;29;20215;-80
2021/11/06 07:14:41;;;;;;;8.18;6.30;;;5.80;75.60;;;4.96;61.66;96121.03;4987392;28;20209;-80
2021/11/06 07:17:08;;;;;;;8.05;6.72;;;5.80;75.60;;;5.02;61.91;96138.75;4939076;28;20587;-78
2021/11/06 07:19:35;;;;;;;9.57;6.68;;;5.80;75.50;;;5.01;61.62;96131.88;4932646;28;20190;-77
2021/11/06 07:22:03;;;;;;;7.75;6.10;;;5.80;75.60;;;5.04;61.41;96136.84;4941603;29;20705;-78
2021/11/06 07:24:30;;;;;;;13.35;6.53;;;5.80;75.60;;;5.07;61.95;96143.56;4937061;29;20551;-78
2021/11/06 07:26:58;;;;;;;9.30;6.40;;;5.80;75.70;;;5.09;61.61;96142.47;4925310;28;20222;-79
2021/11/06 07:29:25;;;;;;;7.55;6.03;;;5.80;75.70;;;5.14;61.66;96142.09;4927151;29;20281;-79
2021/11/06 07:31:53;;;;;;;7.22;6.05;;;5.80;75.80;;;5.18;61.79;96142.69;4924648;29;20246;-80
2021/11/06 07:34:20;;;;;;;9.30;6.57;;;5.80;75.80;;;5.21;61.76;96145.84;4926582;28;20282;-79
2021/11/06 07:36:47;;;;;;;8.55;6.22;;;5.90;75.90;;;5.28;61.62;96140.94;4938007;28;20324;-79
2021/11/06 07:39:14;;;;;;;7.25;5.45;;;5.90;75.90;;;5.35;61.78;96147.28;4945745;28;20287;-80
2021/11/06 07:41:42;;;;;;;10.77;6.70;;;6.00;76.10;;;5.47;61.92;96145.44;4956892;28;20231;-80
2021/11/06 07:44:11;;;;;;;7.20;5.57;;;6.00;76.30;;;5.59;62.48;96141.78;4962841;28;20217;-79
2021/11/06 07:46:40;;;;;;;7.20;5.80;;;6.10;76.50;;;5.73;62.32;96145.81;4965060;28;20360;-79
2021/11/06 07:49:07;;;;;;;8.68;5.85;;;6.20;76.60;;;5.86;62.10;96142.16;4944538;28;20283;-81
2021/11/06 07:51:34;;;;;;;6.45;5.70;;;6.30;76.70;;;6.03;62.16;96145.94;4961646;28;20233;-81
2021/11/06 07:54:01;;;;;;;7.03;5.78;;;6.40;76.70;;;6.17;61.88;96139.53;4977984;28;20301;-81
2021/11/06 07:56:29;;;;;;;7.18;5.72;;;6.50;76.70;;;6.31;61.86;96148.75;4965340;28;20216;-79
2021/11/06 07:58:57;;;;;;;5.75;5.10;;;6.60;76.70;;;6.43;61.70;96141.66;4954139;28;20219;-80
2021/11/06 08:01:24;;;;;;;7.05;5.47;;;6.80;76.70;;;6.56;61.49;96139.59;4924873;29;20590;-81
2021/11/06 08:03:51;;;;;;;6.50;5.50;;;6.80;76.60;;;6.62;61.22;96125.22;4924573;29;20287;-81
2021/11/06 08:06:18;;;;;;;7.03;5.20;;;6.90;76.50;;;6.75;61.48;96135.34;4940467;29;20277;-81
2021/11/06 08:08:46;;;;;;;6.45;4.82;;;7.00;76.40;;;6.86;61.08;96135.19;4933123;29;20662;-80
2021/11/06 08:11:13;;;;;;;6.25;5.32;;;7.10;76.40;;;6.96;61.21;96138.63;4936605;28;20322;-81
2021/11/06 08:13:40;;;;;;;6.80;5.18;;;7.20;76.30;;;7.00;61.12;96126.94;4940226;29;20201;-80
2021/11/06 08:16:07;;;;;;;5.03;4.43;;;7.30;76.30;;;7.15;61.06;96134.34;4956209;29;20231;-80
2021/11/06 08:18:34;;;;;;;5.80;4.80;;;7.40;76.20;;;7.25;60.93;96132.56;4969665;28;20195;-81
2021/11/06 08:21:02;;;;;;;5.88;4.75;;;7.50;76.20;;;7.35;61.01;96133.34;4925015;28;20230;-81
2021/11/06 08:23:29;;;;;;;5.53;4.78;;;7.60;76.20;;;7.45;60.66;96135.13;4945858;28;20198;-81
2021/11/06 08:25:56;;;;;;;6.63;5.40;;;7.70;76.20;;;7.54;60.32;96134.25;4978710;28;20252;-80
2021/11/06 08:28:24;;;;;;;6.03;5.20;;;7.70;76.00;;;7.64;60.76;96132.44;4942840;28;20493;-81
2021/11/06 08:30:51;;;;;;;7.75;4.88;;;7.80;76.10;;;7.73;60.77;96130.75;4943394;28;20313;-81
2021/11/06 08:33:19;;;;;;;5.75;4.93;;;8.00;76.20;;;7.78;60.56;96130.34;4942056;29;20187;-81
2021/11/06 08:35:46;;;;;;;5.25;4.30;;;8.00;76.10;;;7.92;60.63;96142.09;4923951;28;20231;-80
2021/11/06 08:38:14;;;;;;;5.63;4.80;;;8.20;76.20;;;8.01;60.49;96143.84;4924348;29;20196;-82
2021/11/06 08:40:42;;;;;;;5.95;4.95;;;8.20;76.20;;;8.12;60.50;96141.03;4931120;28;20261;-80
2021/11/06 08:43:09;;;;;;;5.95;4.68;;;8.30;76.10;;;8.18;60.24;96140.44;4938777;28;20194;-81
2021/11/06 08:45:37;;;;;;;5.95;5.10;;;8.40;76.10;;;8.28;60.10;96142.19;4943030;28;20214;-81
2021/11/06 08:48:05;;;;;;;5.25;4.50;;;8.50;76.00;;;8.38;60.00;96137.69;4974068;28;20588;-81
2021/11/06 08:50:32;;;;;;;5.32;4.80;;;8.50;75.90;;;8.45;59.64;96140.56;4924743;29;20649;-80
2021/11/06 08:53:00;;;;;;;6.18;4.82;;;8.60;75.70;;;8.53;59.73;96145.06;4923516;29;20691;-81
2021/11/06 08:55:27;;;;;;;6.43;5.05;;;8.70;75.60;;;8.63;59.54;96144.03;4928124;28;20202;-81
2021/11/06 08:57:57;;;;;;;5.85;4.68;;;8.80;75.70;;;8.72;59.55;96141.50;4940991;29;20221;-81
2021/11/06 09:00:47;;;;;;;5.75;4.40;;;8.90;75.60;;;8.80;59.52;96145.00;4935250;28;20333;-80
2021/11/06 09:03:20;;;;;;;7.90;4.70;;;8.90;75.50;;;8.89;59.56;96148.50;4958146;28;20697;-80
2021/11/06 09:05:51;;;;;;;6.85;5.15;;;9.10;75.50;;;8.98;59.21;96152.00;4974211;28;20249;-81
2021/11/06 09:08:33;;;;;;;7.53;4.80;;;9.10;75.20;;;9.06;59.44;96149.47;4968174;28;20226;-82
2021/11/06 09:11:05;;;;;;;6.07;5.15;;;9.20;75.20;;;9.15;59.13;96147.72;4954038;29;20708;-81
2021/11/06 09:13:33;;;;;;;5.82;5.22;;;9.30;75.30;;;9.25;59.01;96153.72;4923379;29;20409;-81
2021/11/06 09:16:07;;;;;;;5.50;4.63;;;9.40;75.40;;;9.33;59.19;96157.38;4926275;28;20693;-81
2021/11/06 09:18:40;;;;;;;4.80;4.30;;;9.50;75.40;;;9.35;59.16;96140.53;4937400;28;20278;-82
2021/11/06 09:21:09;;;;;;;4.63;4.05;;;9.50;75.40;;;9.47;59.20;96143.69;4943273;28;20246;-80
2021/11/06 09:23:38;;;;;;;7.00;5.10;;;9.60;75.50;;;9.60;58.82;96154.56;4950227;28;20544;-80
2021/11/06 09:26:05;;;;;;;6.25;5.00;;;9.70;75.60;;;9.67;59.05;96146.94;4947361;28;20532;-80
2021/11/06 09:28:40;;;;;;;5.47;4.88;;;9.80;76.40;;;9.76;58.97;96148.63;4960260;28;20198;-81
2021/11/06 09:31:10;;;;;;;6.22;4.80;;;9.80;75.60;;;9.86;59.04;96151.13;4940721;28;20241;-82
2021/11/06 09:33:39;;;;;;;6.47;5.07;;;10.00;74.60;;;9.92;58.73;96139.19;4934998;28;20212;-80
2021/11/06 09:36:08;;;;;;;6.85;5.38;;;10.00;74.40;;;10.01;58.68;96148.72;4930793;28;20212;-80
2021/11/06 09:38:36;;;;;;;5.88;4.85;;;10.10;74.20;;;10.11;58.70;96151.22;4920848;28;20670;-80
2021/11/06 09:41:07;;;;;;;6.32;5.10;;;10.20;74.10;;;10.15;58.42;96144.69;4940568;28;20254;-81
2021/11/06 09:43:36;;;;;;;5.63;4.53;;;10.20;73.90;;;10.25;58.23;96141.94;4931658;28;20198;-80
2021/11/06 09:46:04;;;;;;;5.32;4.43;;;10.30;73.70;;;10.31;58.47;96138.66;4930842;28;20253;-80
2021/11/06 09:48:32;;;;;;;5.65;4.40;;;10.40;73.80;;;10.39;58.14;96141.34;4936963;28;20669;-81
2021/11/06 09:51:00;;;;;;;4.88;4.10;;;10.60;73.90;;;10.49;58.06;96138.59;4952109;28;20234;-82
2021/11/06 09:53:37;;;;;;;4.70;3.83;;;10.50;73.70;;;10.56;58.01;96139.59;4963117;28;20203;-80
2021/11/06 09:56:06;;;;;;;4.50;3.70;;;10.60;73.50;;;10.62;57.85;96132.03;4949905;28;20345;-81
2021/11/06 09:58:35;;;;;;;4.32;3.83;;;10.70;73.40;;;10.72;57.61;96136.16;4946554;28;20198;-81
2021/11/06 10:01:04;;;;;;;5.82;3.80;;;10.80;73.30;;;10.75;57.48;96135.00;4932164;28;20228;-81
2021/11/06 10:03:32;;;;;;;3.50;3.20;;;10.80;72.90;;;10.81;57.29;96131.75;4945435;28;20346;-81
2021/11/06 10:06:03;;;;;;;4.40;2.90;;;10.90;72.80;;;10.89;57.08;96136.19;4935046;28;20304;-79
2021/11/06 10:08:35;;;;;;;4.38;2.88;;;10.90;72.30;;;10.92;56.75;96135.03;4932265;28;20183;-80
2021/11/06 10:11:12;;;;;;;3.05;2.30;;;11.00;72.20;;;10.88;56.36;96129.28;4931894;28;20227;-79
2021/11/06 10:13:56;;;;;;;2.85;2.47;;;11.10;71.30;;;10.82;56.48;96132.56;4943210;28;20193;-81
2021/11/06 10:16:45;;;;;;;3.10;2.25;;;11.10;71.10;;;10.75;56.32;96128.97;4951401;28;20215;-80
2021/11/06 10:19:13;;;;;;;2.35;2.13;;;11.10;70.80;;;10.75;56.39;96126.34;4957966;28;20190;-81
2021/11/06 10:21:48;;;;;;;2.47;2.28;;;11.10;71.30;;;10.78;56.29;96126.84;4936944;28;20273;-81
2021/11/06 10:24:35;;;;;;;2.15;1.95;;;11.10;70.70;;;10.82;56.27;96124.69;4947914;28;20189;-80
2021/11/06 10:27:23;;;;;;;2.65;2.20;;;11.10;71.10;;;10.92;56.36;96120.09;4953788;28;20222;-81
2021/11/06 10:30:13;;;;;;;3.20;2.35;;;11.10;70.70;;;11.04;56.13;96107.47;4930542;28;20202;-81
2021/11/06 10:33:10;;;;;;;2.30;2.10;;;11.20;70.90;;;11.22;56.04;96115.19;4947273;28;20241;-81
2021/11/06 10:35:44;;;;;;;3.25;2.42;;;11.30;71.40;;;11.36;55.84;96111.88;4970179;28;20290;-79